Terminal Aerodrome Forecast
Issued by NWS St Louis, MO

Home | Current Version | Previous Version | Graphics & Text | Print | Product List | Glossary On
Versions: 1 2 3 4 5 6 7 8 9 10 11 12 13 14 15 16 17 18 19 20 21 22 23 24 25 26 27 28 29
000
FTUS43 KLSX 201513 AAA
TAFSTL
TAF AMD
KSTL 201513Z 2015/2118 VRB05KT P6SM BKN200
     FM201600 20008KT P6SM OVC015
     FM202000 19007KT P6SM OVC025
     FM210300 16008KT P6SM OVC015
     FM210600 16007KT 4SM BR OVC010=

USA.gov is the U.S. government's official web portal to all federal, state and local government web resources and services.